Terminal Aerodrome Forecast
Issued by NWS Wilmington, OH

Home | Current Version | Previous Version | Text Only | Print | Product List | Glossary On
Versions: 1 2 3 4 5 6 7 8 9 10 11 12 13 14 15 16 17 18
102
FTUS41 KILN 221502 AAB
TAFILN
TAF AMD
KILN 221502Z 2215/2312 21010KT P6SM VCSH SCT040 BKN150
      TEMPO 2215/2217 5SM -TSRA SCT025 BKN040CB OVC100
     FM221700 24012G20KT P6SM SCT040 BKN100
     FM230100 23009KT 5SM -SHRA VCTS BKN050CB
      TEMPO 2302/2306 2SM -TSRA BKN025CB
     FM230800 24008KT P6SM VCSH BKN050=

USA.gov is the U.S. government's official web portal to all federal, state and local government web resources and services.